01:10
Airports
Links
Donate
Help keep this website running!
PayPal
Bitcoin
METAR
KMDW 200053Z 21016G23KT 10SM FEW150 OVC250 03/M02 A2975 RMK AO2 SLP085 T00331017
Current Weather Conditions at KMDW
VFR 00:53:00 20-01-18
Automated station
Altimeter:29.75 hg
Temp:3.3°c 37°f
Dew point:-1.7°c 30°f
Wind:16 knots, 18.4 mph, 8 m/s, from 210°
Visibility:10.0 statute miles
25000(OVC) Overcast
15000(FEW) A few
Past METAR reports
VFR 23:53:00 19-01-18
Automated station
Altimeter:29.75 hg
Temp:3.3°c 37°f
Dew point:-1.7°c 30°f
Wind:16 knots, 18.4 mph, 8 m/s, from 210°
Visibility:10.0 statute miles
25000(BKN) Broken
15000(FEW) A few
KMDW 192353Z 21016G24KT 10SM FEW150 BKN250 03/M02 A2975 RMK AO2 SLP085 T00331017 10039 20028 58011
VFR 22:53:00 19-01-18
Automated station
Altimeter:29.76 hg
Temp:2.8°c 36°f
Dew point:-1.7°c 30°f
Wind:14 knots, 16.1 mph, 7 m/s, from 210°
Visibility:10.0 statute miles
25000(BKN) Broken
15000(FEW) A few
KMDW 192253Z 21014G20KT 10SM FEW150 BKN250 03/M02 A2976 RMK AO2 SLP090 T00281017
VFR 21:53:00 19-01-18
Automated station
Altimeter:29.79 hg
Temp:3.9°c 37°f
Dew point:-2.8°c 28°f
Wind:19 knots, 21.9 mph, 10 m/s, from 210°
Visibility:10.0 statute miles
25000(BKN) Broken
15000(FEW) A few
KMDW 192153Z 21019G23KT 10SM FEW150 BKN250 04/M03 A2979 RMK AO2 PK WND 20026/2134 SLP097 T00391028
VFR 20:53:00 19-01-18
Automated station
Altimeter:29.79 hg
Temp:3.9°c 37°f
Dew point:-3.3°c 27°f
Wind:17 knots, 19.6 mph, 9 m/s, from 200°
Visibility:10.0 statute miles
25000(BKN) Broken
15000(FEW) A few
KMDW 192053Z 20017G23KT 10SM FEW150 BKN250 04/M03 A2979 RMK AO2 SLP096 T00391033 56025
VFR 19:53:00 19-01-18
Automated station
Altimeter:29.79 hg
Temp:3.3°c 37°f
Dew point:-3.9°c 27°f
Wind:13 knots, 15 mph, 7 m/s, from 200°
Visibility:10.0 statute miles
25000(BKN) Broken
15000(FEW) A few
KMDW 191953Z 20013G21KT 10SM FEW150 BKN250 03/M04 A2979 RMK AO2 PK WND 20026/1857 SLP099 T00331039
TAF
KMDW 192320Z 2000/2106 21016G22KT P6SM BKN250 WS020/23055KT FM200700 23011KT P6SM BKN250 FM201600 24008KT P6SM BKN020 FM201800 23009KT P6SM OVC012 FM202200 22006KT 5SM BR OVC008 FM210400 21005KT 2SM BR OVC005
Forecast at KMDW
00:00 20-01-18 to 07:00 20-01-18
Wind:16 Knots from 210°
Visibility:6.21 statute miles
25000BKN Broken
FM 07:00 20-01-18 to 16:00 20-01-18
Wind:11 Knots from 230°
Visibility:6.21 statute miles
25000BKN Broken
FM 16:00 20-01-18 to 18:00 20-01-18
Wind:8 Knots from 240°
Visibility:6.21 statute miles
2000BKN Broken
FM 18:00 20-01-18 to 22:00 20-01-18
Wind:9 Knots from 230°
Visibility:6.21 statute miles
1200OVC Overcast
FM 22:00 20-01-18 to 04:00 21-01-18
BR
Wind:6 Knots from 220°
Visibility:5.0 statute miles
800OVC Overcast
FM 04:00 21-01-18 to 06:00 21-01-18
BR
Wind:5 Knots from 210°
Visibility:2.0 statute miles
500OVC Overcast